Time;durP1;ratioP1;P1;durP2;ratioP2;P2;SDS_P1;SDS_P2;PMS_P1;PMS_P2;Temp;Humidity;BMP_temperature;BMP_pressure;BME280_temperature;BME280_humidity;BME280_pressure;Samples;Min_cycle;Max_cycle;Signal;HPM_P1;HPM_P2
2023/06/25 00:00:58;;;;;;;13.57;10.70;;;;;;;;;;5045029;28;20494;-81
2023/06/25 00:03:29;;;;;;;18.87;13.03;;;;;;;;;;5041902;28;20723;-79
2023/06/25 00:05:57;;;;;;;13.33;11.70;;;;;;;;;;5044251;28;20524;-79
2023/06/25 00:14:01;;;;;;;11.13;8.67;;;;;;;;;;5032302;28;20569;-73
2023/06/25 00:16:33;;;;;;;12.83;8.43;;;;;;;;;;5035192;28;20525;-72
2023/06/25 00:19:04;;;;;;;11.80;9.47;;;;;;;;;;5036145;28;20520;-72
2023/06/25 00:21:37;;;;;;;15.60;10.33;;;;;;;;;;5034703;28;20474;-72
2023/06/25 00:24:04;;;;;;;12.17;9.90;;;;;;;;;;5034414;28;20518;-73
2023/06/25 00:29:12;;;;;;;15.90;12.23;;;;;;;;;;4326662;26;20579;-72
2023/06/25 00:31:39;;;;;;;17.27;12.30;;;;;;;;;;5033646;28;20458;-70
2023/06/25 00:34:08;;;;;;;15.20;11.27;;;;;;;;;;5014830;28;20459;-71
2023/06/25 00:36:45;;;;;;;13.70;11.13;;;;;;;;;;5024636;28;20465;-72
2023/06/25 00:39:13;;;;;;;15.80;11.57;;;;;;;;;;5016677;28;20479;-72
2023/06/25 00:41:40;;;;;;;16.87;12.27;;;;;;;;;;5016288;28;20548;-72
2023/06/25 00:44:10;;;;;;;18.63;12.60;;;;;;;;;;5015667;28;20936;-71
2023/06/25 00:46:38;;;;;;;17.33;12.23;;;;;;;;;;5032763;28;20450;-71
2023/06/25 00:49:06;;;;;;;16.70;14.53;;;;;;;;;;5035257;28;20463;-71
2023/06/25 00:51:35;;;;;;;19.70;10.97;;;;;;;;;;5035536;28;20890;-71
2023/06/25 00:54:04;;;;;;;15.07;10.63;;;;;;;;;;5036299;28;20455;-71
2023/06/25 00:56:32;;;;;;;14.80;12.17;;;;;;;;;;5037491;28;20441;-71
2023/06/25 00:59:00;;;;;;;17.57;13.80;;;;;;;;;;5031975;28;20442;-71
2023/06/25 01:01:37;;;;;;;17.10;13.30;;;;;;;;;;5030116;28;20494;-72
2023/06/25 01:04:08;;;;;;;19.50;13.10;;;;;;;;;;5029506;28;20461;-71
2023/06/25 01:06:40;;;;;;;17.00;12.67;;;;;;;;;;5035892;28;20799;-72
2023/06/25 01:09:32;;;;;;;18.27;12.30;;;;;;;;;;5036711;28;20722;-72
2023/06/25 01:12:04;;;;;;;16.37;13.10;;;;;;;;;;5038198;28;20458;-72
2023/06/25 01:14:34;;;;;;;14.63;12.13;;;;;;;;;;5035984;28;20729;-72
2023/06/25 01:17:06;;;;;;;17.63;13.00;;;;;;;;;;5032965;28;20930;-73
2023/06/25 01:19:35;;;;;;;15.70;11.43;;;;;;;;;;5015009;28;20451;-72
2023/06/25 01:22:03;;;;;;;14.80;11.20;;;;;;;;;;4996828;28;20471;-72
2023/06/25 01:24:36;;;;;;;12.10;9.70;;;;;;;;;;5014756;28;20463;-73
2023/06/25 01:38:13;;;;;;;11.40;9.40;;;;;;;;;;5080055;23;20493;-80
2023/06/25 01:40:42;;;;;;;11.10;9.53;;;;;;;;;;5034552;28;20486;-80
2023/06/25 01:43:09;;;;;;;11.80;10.17;;;;;;;;;;5034496;28;20458;-80
2023/06/25 01:45:36;;;;;;;15.50;9.33;;;;;;;;;;5042023;28;20450;-81
2023/06/25 01:48:04;;;;;;;12.63;9.50;;;;;;;;;;5047574;28;20457;-81
2023/06/25 01:50:31;;;;;;;10.87;8.37;;;;;;;;;;5042932;28;20473;-81
2023/06/25 01:52:58;;;;;;;10.93;9.03;;;;;;;;;;5048935;28;20451;-82
2023/06/25 01:55:26;;;;;;;8.43;7.50;;;;;;;;;;5046928;28;20458;-81
2023/06/25 01:57:54;;;;;;;10.07;8.10;;;;;;;;;;5050207;28;20520;-82
2023/06/25 02:00:23;;;;;;;8.23;7.37;;;;;;;;;;5048823;28;20482;-80
2023/06/25 02:02:50;;;;;;;10.70;9.60;;;;;;;;;;5048024;28;20485;-81
2023/06/25 02:05:18;;;;;;;12.57;8.67;;;;;;;;;;5041180;28;20454;-81
2023/06/25 02:07:51;;;;;;;12.27;9.83;;;;;;;;;;5040764;28;20454;-81
2023/06/25 02:13:24;;;;;;;9.37;8.10;;;;;;;;;;5039725;28;20464;-81
2023/06/25 02:15:53;;;;;;;9.97;8.97;;;;;;;;;;5046501;28;20465;-81
2023/06/25 02:18:21;;;;;;;11.17;9.27;;;;;;;;;;5043479;28;20485;-79
2023/06/25 02:20:49;;;;;;;10.97;9.50;;;;;;;;;;5042024;28;20505;-81
2023/06/25 02:23:17;;;;;;;11.80;9.70;;;;;;;;;;5041953;28;20456;-79
2023/06/25 02:25:44;;;;;;;11.13;9.50;;;;;;;;;;5044663;28;20442;-81
2023/06/25 02:28:12;;;;;;;11.50;10.30;;;;;;;;;;5044169;28;20910;-81
2023/06/25 02:30:41;;;;;;;12.57;9.97;;;;;;;;;;5036283;28;20450;-80
2023/06/25 02:38:09;;;;;;;10.90;9.77;;;;;;;;;;5003958;28;20877;-81
2023/06/25 02:40:36;;;;;;;12.30;9.93;;;;;;;;;;5001998;28;20494;-81
2023/06/25 02:43:04;;;;;;;10.07;9.07;;;;;;;;;;5000860;28;20456;-81
2023/06/25 02:45:31;;;;;;;10.80;9.70;;;;;;;;;;4999717;28;20460;-79
2023/06/25 02:48:00;;;;;;;10.40;9.30;;;;;;;;;;5003809;28;20969;-80
2023/06/25 02:50:28;;;;;;;10.40;9.00;;;;;;;;;;5006472;28;20463;-80
2023/06/25 02:52:55;;;;;;;9.77;8.53;;;;;;;;;;5008856;28;20487;-80
2023/06/25 02:55:22;;;;;;;10.53;9.43;;;;;;;;;;5010751;28;20484;-80
2023/06/25 02:57:50;;;;;;;12.07;9.10;;;;;;;;;;5008189;28;20455;-80
2023/06/25 03:00:20;;;;;;;9.73;8.53;;;;;;;;;;5013032;28;20523;-81
2023/06/25 03:02:48;;;;;;;10.10;8.43;;;;;;;;;;5011581;28;20563;-81
2023/06/25 03:05:16;;;;;;;10.73;9.53;;;;;;;;;;5009905;28;21096;-81
2023/06/25 03:07:50;;;;;;;13.10;10.20;;;;;;;;;;5009171;28;20491;-82
2023/06/25 03:13:22;;;;;;;9.80;8.50;;;;;;;;;;5023796;28;20465;-81
2023/06/25 03:15:49;;;;;;;10.50;8.87;;;;;;;;;;5030791;28;20486;-81
2023/06/25 03:18:17;;;;;;;11.20;9.23;;;;;;;;;;5027389;28;20463;-81
2023/06/25 03:20:46;;;;;;;12.00;9.83;;;;;;;;;;5023785;28;20486;-81
2023/06/25 03:23:13;;;;;;;10.53;9.50;;;;;;;;;;5029614;28;20451;-81
2023/06/25 03:25:40;;;;;;;12.63;9.87;;;;;;;;;;5029425;28;20487;-81
2023/06/25 03:28:08;;;;;;;11.60;9.77;;;;;;;;;;5029673;28;20459;-81
2023/06/25 03:30:35;;;;;;;10.50;9.03;;;;;;;;;;5028183;28;20462;-80
2023/06/25 03:40:51;;;;;;;11.10;9.60;;;;;;;;;;5054687;23;20497;-80
2023/06/25 03:43:19;;;;;;;11.90;8.73;;;;;;;;;;5022502;28;20451;-81
2023/06/25 03:45:46;;;;;;;9.37;8.23;;;;;;;;;;5024161;28;20458;-80
2023/06/25 03:48:14;;;;;;;12.13;9.17;;;;;;;;;;5029228;28;20456;-80
2023/06/25 03:50:41;;;;;;;11.00;9.57;;;;;;;;;;5030424;28;20477;-81
2023/06/25 03:53:08;;;;;;;13.30;9.60;;;;;;;;;;5026103;28;20498;-79
2023/06/25 03:55:36;;;;;;;10.43;8.53;;;;;;;;;;5025019;28;20467;-80
2023/06/25 03:58:04;;;;;;;9.63;8.73;;;;;;;;;;5029795;28;20456;-82
2023/06/25 04:00:32;;;;;;;10.93;8.67;;;;;;;;;;5031093;28;20475;-82
2023/06/25 04:02:59;;;;;;;11.10;8.63;;;;;;;;;;5032707;28;20489;-80
2023/06/25 04:05:26;;;;;;;10.20;8.77;;;;;;;;;;5029379;28;20459;-82
2023/06/25 04:07:54;;;;;;;9.60;7.90;;;;;;;;;;5027276;28;20459;-79
2023/06/25 04:13:31;;;;;;;9.90;7.80;;;;;;;;;;5027962;28;20477;-81
2023/06/25 04:15:59;;;;;;;9.43;8.47;;;;;;;;;;5026695;28;20466;-80
2023/06/25 04:18:27;;;;;;;8.47;7.53;;;;;;;;;;5023696;28;20557;-79
2023/06/25 04:20:55;;;;;;;11.67;9.73;;;;;;;;;;5032607;28;20479;-81
2023/06/25 04:23:22;;;;;;;11.10;9.50;;;;;;;;;;5030076;28;20519;-80
2023/06/25 04:25:50;;;;;;;10.57;9.47;;;;;;;;;;5028820;28;20452;-80
2023/06/25 04:28:17;;;;;;;13.90;9.40;;;;;;;;;;5027958;28;20455;-81
2023/06/25 04:30:46;;;;;;;10.13;9.10;;;;;;;;;;5026856;28;20712;-81
2023/06/25 04:38:25;;;;;;;10.60;9.30;;;;;;;;;;4821554;26;20487;-71
2023/06/25 04:40:53;;;;;;;10.40;9.27;;;;;;;;;;5014318;28;20543;-72
2023/06/25 04:43:23;;;;;;;9.70;8.70;;;;;;;;;;5014623;28;20459;-72
2023/06/25 04:45:52;;;;;;;12.53;8.83;;;;;;;;;;5013258;28;20613;-71
2023/06/25 04:48:20;;;;;;;9.80;8.17;;;;;;;;;;4996265;28;20471;-72
2023/06/25 04:51:07;;;;;;;10.70;8.10;;;;;;;;;;4996336;28;20534;-72
2023/06/25 04:53:35;;;;;;;9.90;8.10;;;;;;;;;;4997371;28;20486;-72
2023/06/25 04:56:02;;;;;;;9.97;7.60;;;;;;;;;;4998107;28;20444;-72
2023/06/25 04:58:30;;;;;;;10.30;9.27;;;;;;;;;;4998670;28;20495;-72
2023/06/25 05:01:00;;;;;;;14.93;8.47;;;;;;;;;;4997473;28;20488;-72
2023/06/25 05:03:31;;;;;;;9.10;8.13;;;;;;;;;;4997550;28;20476;-71
2023/06/25 05:05:58;;;;;;;9.60;8.30;;;;;;;;;;4997132;28;20460;-73
2023/06/25 05:08:26;;;;;;;12.43;10.83;;;;;;;;;;5008916;28;20457;-73
2023/06/25 05:10:57;;;;;;;9.70;8.70;;;;;;;;;;5015578;28;20483;-71
2023/06/25 05:13:29;;;;;;;10.40;9.00;;;;;;;;;;5009957;28;20530;-72
2023/06/25 05:15:57;;;;;;;10.83;9.73;;;;;;;;;;4993308;28;20558;-72
2023/06/25 05:18:26;;;;;;;10.50;8.87;;;;;;;;;;4995546;28;20487;-73
2023/06/25 05:20:54;;;;;;;10.73;9.00;;;;;;;;;;4994041;28;20833;-72
2023/06/25 05:23:32;;;;;;;12.13;9.23;;;;;;;;;;4992542;28;21119;-73
2023/06/25 05:26:00;;;;;;;12.50;9.83;;;;;;;;;;5003125;28;21028;-72
2023/06/25 05:31:34;;;;;;;11.07;9.30;;;;;;;;;;5015059;28;20849;-82
2023/06/25 05:34:06;;;;;;;13.53;10.10;;;;;;;;;;5018991;23;20554;-72
2023/06/25 05:36:34;;;;;;;12.90;10.30;;;;;;;;;;4974203;28;20452;-73
2023/06/25 05:39:01;;;;;;;11.50;9.57;;;;;;;;;;4974099;28;20540;-73
2023/06/25 05:41:29;;;;;;;11.80;9.90;;;;;;;;;;4974862;28;20571;-73
2023/06/25 05:43:59;;;;;;;11.33;9.67;;;;;;;;;;4969323;28;20475;-72
2023/06/25 05:46:27;;;;;;;13.33;11.93;;;;;;;;;;4975745;28;20466;-71
2023/06/25 05:48:55;;;;;;;18.03;12.27;;;;;;;;;;4960146;28;20458;-71
2023/06/25 05:54:29;;;;;;;12.30;10.33;;;;;;;;;;4985538;28;20523;-73
2023/06/25 05:56:57;;;;;;;12.40;10.30;;;;;;;;;;5014763;28;20454;-74
2023/06/25 05:59:25;;;;;;;11.47;10.27;;;;;;;;;;5015203;28;20451;-73
2023/06/25 06:01:55;;;;;;;15.90;12.00;;;;;;;;;;5015779;28;20688;-73
2023/06/25 06:04:23;;;;;;;14.50;11.47;;;;;;;;;;5009856;28;20459;-73
2023/06/25 06:06:55;;;;;;;11.87;10.40;;;;;;;;;;5014901;28;20463;-72
2023/06/25 06:09:23;;;;;;;15.43;12.80;;;;;;;;;;4999417;28;20456;-73
2023/06/25 06:11:52;;;;;;;14.67;12.37;;;;;;;;;;4995510;28;20452;-73
2023/06/25 06:14:20;;;;;;;16.30;12.97;;;;;;;;;;4995428;28;20452;-72
2023/06/25 06:16:47;;;;;;;15.37;11.13;;;;;;;;;;4995492;28;20455;-73
2023/06/25 06:19:15;;;;;;;15.07;12.60;;;;;;;;;;5000209;28;20459;-73
2023/06/25 06:21:43;;;;;;;10.90;9.80;;;;;;;;;;5007853;28;20549;-73
2023/06/25 06:24:12;;;;;;;14.80;12.33;;;;;;;;;;4994863;28;20456;-72
2023/06/25 06:35:08;;;;;;;15.07;11.33;;;;;;;;;;5364730;23;20966;-82
2023/06/25 06:37:35;;;;;;;13.80;10.77;;;;;;;;;;5048456;28;20458;-83
2023/06/25 06:40:05;;;;;;;13.97;10.43;;;;;;;;;;5052363;28;20455;-83
2023/06/25 06:42:34;;;;;;;12.77;9.77;;;;;;;;;;5053204;28;20489;-80
2023/06/25 06:45:02;;;;;;;13.77;10.50;;;;;;;;;;5053490;28;20492;-81
2023/06/25 06:47:30;;;;;;;14.07;9.67;;;;;;;;;;5051158;28;20489;-80
2023/06/25 06:49:58;;;;;;;9.63;8.43;;;;;;;;;;5052819;28;20464;-81
2023/06/25 06:52:26;;;;;;;14.90;9.67;;;;;;;;;;5052220;28;20450;-80
2023/06/25 06:54:54;;;;;;;12.83;9.50;;;;;;;;;;5054194;28;20458;-79
2023/06/25 06:57:21;;;;;;;11.30;8.87;;;;;;;;;;5055714;28;20897;-81
2023/06/25 06:59:48;;;;;;;10.70;9.00;;;;;;;;;;5044316;28;20485;-83
2023/06/25 07:02:17;;;;;;;12.50;9.03;;;;;;;;;;5042252;28;20764;-81
2023/06/25 07:04:45;;;;;;;9.97;8.37;;;;;;;;;;5040019;28;20461;-81
2023/06/25 07:07:12;;;;;;;11.63;8.73;;;;;;;;;;5041460;28;20504;-79
2023/06/25 07:12:44;;;;;;;11.20;8.93;;;;;;;;;;5043751;28;20463;-81
2023/06/25 07:15:12;;;;;;;9.70;6.83;;;;;;;;;;5059711;28;20457;-81
2023/06/25 07:17:41;;;;;;;12.00;7.83;;;;;;;;;;5058136;28;20484;-83
2023/06/25 07:20:09;;;;;;;11.87;7.83;;;;;;;;;;5062813;28;20481;-79
2023/06/25 07:22:39;;;;;;;9.30;7.50;;;;;;;;;;5068675;28;20485;-80
2023/06/25 07:25:07;;;;;;;9.50;7.63;;;;;;;;;;5068112;28;20540;-81
2023/06/25 07:27:35;;;;;;;9.80;8.17;;;;;;;;;;5068218;28;20453;-83
2023/06/25 07:30:09;;;;;;;9.43;7.50;;;;;;;;;;5069719;28;20445;-83
2023/06/25 07:32:38;;;;;;;8.73;7.83;;;;;;;;;;5071178;28;20452;-82
2023/06/25 07:37:43;;;;;;;9.80;7.17;;;;;;;;;;5316146;22;20547;-80
2023/06/25 07:40:11;;;;;;;9.93;6.40;;;;;;;;;;5031320;28;20458;-79
2023/06/25 07:42:38;;;;;;;8.23;5.93;;;;;;;;;;5026487;28;20487;-81
2023/06/25 07:45:06;;;;;;;8.00;6.67;;;;;;;;;;5030813;28;20455;-82
2023/06/25 07:47:34;;;;;;;8.07;6.40;;;;;;;;;;5029006;28;20889;-82
2023/06/25 07:50:02;;;;;;;8.03;6.70;;;;;;;;;;5041806;28;20447;-81
2023/06/25 07:52:30;;;;;;;8.50;6.77;;;;;;;;;;5046418;28;20462;-79
2023/06/25 07:54:59;;;;;;;8.30;7.20;;;;;;;;;;5046268;28;20482;-82
2023/06/25 07:57:27;;;;;;;8.00;7.20;;;;;;;;;;5047539;28;20897;-82
2023/06/25 07:59:54;;;;;;;9.83;7.57;;;;;;;;;;5053289;28;20434;-81
2023/06/25 08:02:22;;;;;;;8.83;7.03;;;;;;;;;;5047712;28;20490;-79
2023/06/25 08:04:56;;;;;;;8.10;6.70;;;;;;;;;;5051358;28;20478;-80
2023/06/25 08:07:24;;;;;;;5.80;4.87;;;;;;;;;;5052675;28;20489;-81
2023/06/25 08:15:22;;;;;;;8.30;6.27;;;;;;;;;;5032377;28;20791;-81
2023/06/25 08:17:50;;;;;;;8.13;5.70;;;;;;;;;;5024251;28;20204;-82
2023/06/25 08:20:18;;;;;;;6.37;5.43;;;;;;;;;;5024066;28;20435;-82
2023/06/25 08:22:46;;;;;;;7.20;5.43;;;;;;;;;;5024855;28;20554;-79
2023/06/25 08:25:20;;;;;;;9.00;6.27;;;;;;;;;;5018436;28;20455;-80
2023/06/25 08:27:48;;;;;;;7.77;5.87;;;;;;;;;;5021936;28;20466;-83
2023/06/25 08:30:16;;;;;;;8.67;6.00;;;;;;;;;;5019972;28;20513;-81
2023/06/25 08:32:45;;;;;;;8.07;5.60;;;;;;;;;;5023784;28;20451;-81
2023/06/25 08:45:35;;;;;;;7.17;6.00;;;;;;;;;;5252572;23;20482;-81
2023/06/25 08:48:05;;;;;;;7.00;5.97;;;;;;;;;;5036899;28;20532;-82
2023/06/25 08:50:32;;;;;;;8.80;6.40;;;;;;;;;;5037811;28;20458;-83
2023/06/25 08:53:00;;;;;;;7.17;5.37;;;;;;;;;;5041159;28;20611;-80
2023/06/25 08:55:28;;;;;;;7.50;6.10;;;;;;;;;;5039863;28;20818;-79
2023/06/25 08:57:55;;;;;;;8.50;6.50;;;;;;;;;;5039976;28;20454;-82
2023/06/25 09:00:23;;;;;;;8.57;6.17;;;;;;;;;;5040121;28;20544;-82
2023/06/25 09:02:50;;;;;;;7.17;5.80;;;;;;;;;;5042078;28;20482;-80
2023/06/25 09:05:25;;;;;;;7.37;5.30;;;;;;;;;;5046028;28;20462;-79
2023/06/25 09:07:52;;;;;;;11.90;6.87;;;;;;;;;;5045998;28;20457;-81
2023/06/25 09:13:32;;;;;;;8.93;6.23;;;;;;;;;;5039883;28;20543;-80
2023/06/25 09:16:32;;;;;;;8.03;6.70;;;;;;;;;;5041296;28;20533;-80
2023/06/25 09:19:01;;;;;;;7.63;6.13;;;;;;;;;;5046807;28;20549;-80
2023/06/25 09:21:40;;;;;;;10.27;6.63;;;;;;;;;;5047330;28;20523;-80
2023/06/25 09:24:18;;;;;;;9.53;6.60;;;;;;;;;;5045648;28;20441;-78
2023/06/25 09:26:49;;;;;;;8.80;7.37;;;;;;;;;;5045384;28;20515;-82
2023/06/25 09:29:19;;;;;;;8.97;7.23;;;;;;;;;;5040243;28;20909;-82
2023/06/25 09:31:47;;;;;;;12.10;7.00;;;;;;;;;;5037699;28;20485;-82
2023/06/25 10:38:21;;;;;;;7.67;6.20;;;;;;;;;;4638160;26;20490;-74
2023/06/25 10:40:50;;;;;;;9.10;6.50;;;;;;;;;;5014432;28;20756;-74
2023/06/25 10:43:21;;;;;;;7.97;6.27;;;;;;;;;;5013758;28;20482;-73
2023/06/25 10:45:50;;;;;;;6.00;5.27;;;;;;;;;;5012848;28;20467;-73
2023/06/25 10:51:53;;;;;;;7.37;6.27;;;;;;;;;;5004838;28;20491;-73
2023/06/25 10:54:30;;;;;;;7.50;5.90;;;;;;;;;;5016456;28;20757;-72
2023/06/25 10:57:07;;;;;;;9.27;6.20;;;;;;;;;;5017778;28;20498;-73
2023/06/25 10:59:36;;;;;;;8.03;6.43;;;;;;;;;;5014212;28;20835;-73
2023/06/25 11:02:20;;;;;;;9.07;6.20;;;;;;;;;;5011837;28;20767;-76
2023/06/25 11:04:52;;;;;;;6.93;5.47;;;;;;;;;;5003200;28;20455;-75
2023/06/25 11:07:20;;;;;;;8.97;6.50;;;;;;;;;;5023091;28;20453;-76
2023/06/25 11:10:08;;;;;;;7.40;5.70;;;;;;;;;;5033359;28;20557;-74
2023/06/25 11:12:45;;;;;;;6.80;5.60;;;;;;;;;;5023408;28;20549;-74
2023/06/25 11:15:13;;;;;;;7.20;5.77;;;;;;;;;;5023048;28;20492;-74
2023/06/25 11:17:42;;;;;;;7.43;6.23;;;;;;;;;;5035461;28;20474;-75
2023/06/25 11:20:14;;;;;;;7.47;5.93;;;;;;;;;;5035055;28;20461;-75
2023/06/25 11:22:44;;;;;;;7.40;5.33;;;;;;;;;;5034699;28;20490;-75
2023/06/25 11:25:14;;;;;;;8.50;6.30;;;;;;;;;;5029541;28;20454;-75
2023/06/25 11:39:23;;;;;;;8.70;6.73;;;;;;;;;;4971815;28;20489;-75
2023/06/25 11:41:50;;;;;;;9.40;6.83;;;;;;;;;;4978216;28;20792;-74
2023/06/25 11:44:18;;;;;;;9.57;6.87;;;;;;;;;;4974011;28;20795;-74
2023/06/25 11:47:12;;;;;;;7.77;6.60;;;;;;;;;;4972599;28;20784;-74
2023/06/25 11:50:24;;;;;;;;;;;;;;;;;;;;;
2023/06/25 11:52:57;;;;;;;9.03;7.83;;;;;;;;;;4957612;28;20457;-75
2023/06/25 11:55:29;;;;;;;8.60;5.93;;;;;;;;;;4974624;28;20466;-76
2023/06/25 11:57:57;;;;;;;8.20;6.20;;;;;;;;;;4975005;28;20452;-75
2023/06/25 12:00:25;;;;;;;7.60;6.80;;;;;;;;;;4975017;28;20544;-73
2023/06/25 12:02:53;;;;;;;8.00;6.37;;;;;;;;;;4974261;28;20580;-74
2023/06/25 12:05:25;;;;;;;8.03;6.50;;;;;;;;;;4973617;28;20536;-74
2023/06/25 12:07:57;;;;;;;8.63;6.40;;;;;;;;;;4974922;28;20465;-74
2023/06/25 12:10:29;;;;;;;8.60;7.00;;;;;;;;;;4976766;28;20454;-74
2023/06/25 12:13:05;;;;;;;8.17;6.60;;;;;;;;;;4975275;28;20973;-74
2023/06/25 12:15:37;;;;;;;7.10;5.63;;;;;;;;;;4977093;28;20464;-73
2023/06/25 12:18:07;;;;;;;8.37;6.80;;;;;;;;;;4975693;28;20448;-74
2023/06/25 12:20:55;;;;;;;7.73;6.27;;;;;;;;;;4965783;28;20474;-77
2023/06/25 12:28:56;;;;;;;7.10;5.80;;;;;;;;;;5022632;28;20459;-81
2023/06/25 12:31:23;;;;;;;6.97;5.70;;;;;;;;;;5023497;28;20444;-81
2023/06/25 12:39:01;;;;;;;7.17;5.40;;;;;;;;;;4993269;28;20498;-77
2023/06/25 12:41:28;;;;;;;6.70;5.80;;;;;;;;;;4993978;28;20440;-75
2023/06/25 12:44:08;;;;;;;8.10;5.50;;;;;;;;;;4994342;28;20944;-76
2023/06/25 12:46:39;;;;;;;9.40;6.00;;;;;;;;;;4994289;28;20466;-72
2023/06/25 12:52:31;;;;;;;7.23;5.33;;;;;;;;;;4992760;28;20436;-72
2023/06/25 12:55:01;;;;;;;8.23;5.60;;;;;;;;;;4996267;28;20904;-75
2023/06/25 12:57:37;;;;;;;7.43;4.93;;;;;;;;;;4997259;28;20471;-72
2023/06/25 13:00:08;;;;;;;6.30;5.10;;;;;;;;;;4996522;28;20638;-73
2023/06/25 13:02:43;;;;;;;6.00;4.73;;;;;;;;;;5029668;28;20496;-73
2023/06/25 13:05:15;;;;;;;6.50;4.73;;;;;;;;;;5055120;28;20457;-73
2023/06/25 13:10:37;;;;;;;6.30;5.20;;;;;;;;;;5052051;28;20441;-74
2023/06/25 13:13:08;;;;;;;6.27;5.13;;;;;;;;;;5054037;28;20440;-74
2023/06/25 13:15:37;;;;;;;6.20;5.00;;;;;;;;;;5051869;28;20483;-72
2023/06/25 13:18:16;;;;;;;8.23;5.00;;;;;;;;;;5052211;28;20453;-73
2023/06/25 13:21:13;;;;;;;7.03;4.43;;;;;;;;;;5050902;28;20464;-74
2023/06/25 13:23:56;;;;;;;6.13;4.57;;;;;;;;;;5051647;28;20505;-73
2023/06/25 13:29:00;;;;;;;8.57;5.33;;;;;;;;;;1476490;26;20548;-82
2023/06/25 13:31:29;;;;;;;6.37;4.57;;;;;;;;;;5020872;28;20537;-79
2023/06/25 13:36:42;;;;;;;6.93;5.07;;;;;;;;;;4613799;26;20481;-75
2023/06/25 13:42:15;;;;;;;7.83;5.50;;;;;;;;;;5007645;28;20612;-72
2023/06/25 13:45:11;;;;;;;7.07;5.03;;;;;;;;;;5015355;28;20916;-72
2023/06/25 13:48:13;;;;;;;6.57;4.80;;;;;;;;;;5013462;28;20481;-75
2023/06/25 13:53:53;;;;;;;6.40;4.10;;;;;;;;;;5014455;28;20422;-72
2023/06/25 13:56:27;;;;;;;6.93;5.50;;;;;;;;;;5012012;28;20486;-74
2023/06/25 13:58:56;;;;;;;7.53;5.13;;;;;;;;;;5011049;28;20454;-75
2023/06/25 14:01:36;;;;;;;7.33;5.50;;;;;;;;;;5011966;28;20463;-72
2023/06/25 14:04:26;;;;;;;7.33;5.40;;;;;;;;;;5011410;28;20963;-72
2023/06/25 14:07:14;;;;;;;6.47;4.90;;;;;;;;;;5012639;28;20823;-73
2023/06/25 14:09:50;;;;;;;5.93;4.63;;;;;;;;;;5019617;28;20491;-73
2023/06/25 14:12:21;;;;;;;6.87;5.37;;;;;;;;;;5012470;28;20462;-74
2023/06/25 14:14:49;;;;;;;7.70;5.83;;;;;;;;;;5013155;28;20458;-73
2023/06/25 14:17:20;;;;;;;5.87;4.60;;;;;;;;;;5013946;28;20459;-73
2023/06/25 14:19:50;;;;;;;7.70;5.23;;;;;;;;;;5012430;28;20467;-72
2023/06/25 14:22:21;;;;;;;8.80;5.10;;;;;;;;;;5013891;28;20443;-73
2023/06/25 14:25:01;;;;;;;10.40;5.73;;;;;;;;;;5013458;28;20868;-74
2023/06/25 14:32:33;;;;;;;7.63;4.77;;;;;;;;;;5018424;28;20475;-81
2023/06/25 14:37:37;;;;;;;6.20;5.10;;;;;;;;;;5319604;23;20741;-79
2023/06/25 14:40:08;;;;;;;7.03;4.90;;;;;;;;;;5037391;28;20458;-81
2023/06/25 14:42:35;;;;;;;6.83;4.93;;;;;;;;;;5038201;28;20454;-79
2023/06/25 14:45:04;;;;;;;6.50;5.40;;;;;;;;;;5035951;28;20581;-81
2023/06/25 14:47:31;;;;;;;6.53;5.00;;;;;;;;;;5040188;28;20457;-81
2023/06/25 14:49:58;;;;;;;8.20;5.50;;;;;;;;;;5045294;28;20470;-82
2023/06/25 14:52:26;;;;;;;6.63;5.70;;;;;;;;;;5044879;28;20470;-79
2023/06/25 14:54:55;;;;;;;6.93;5.43;;;;;;;;;;5043303;28;20477;-80
2023/06/25 14:57:22;;;;;;;6.13;5.30;;;;;;;;;;5044534;28;20456;-80
2023/06/25 14:59:50;;;;;;;9.67;8.67;;;;;;;;;;5045218;28;20454;-80
2023/06/25 15:02:17;;;;;;;7.23;5.87;;;;;;;;;;5045497;28;20461;-81
2023/06/25 15:04:47;;;;;;;6.90;5.43;;;;;;;;;;5044467;28;20977;-81
2023/06/25 15:07:15;;;;;;;6.53;5.23;;;;;;;;;;5044222;28;20477;-81
2023/06/25 15:15:18;;;;;;;7.53;5.40;;;;;;;;;;5060613;28;20842;-80
2023/06/25 15:17:47;;;;;;;12.30;6.87;;;;;;;;;;5057400;28;20636;-81
2023/06/25 15:20:16;;;;;;;6.90;5.57;;;;;;;;;;5055815;28;20476;-79
2023/06/25 15:22:49;;;;;;;7.50;6.70;;;;;;;;;;5057191;28;20488;-82
2023/06/25 15:25:19;;;;;;;8.83;7.27;;;;;;;;;;5054579;28;20478;-82
2023/06/25 15:27:47;;;;;;;8.40;5.80;;;;;;;;;;5058710;28;20488;-82
2023/06/25 15:30:18;;;;;;;7.27;5.77;;;;;;;;;;5065430;28;20445;-81
2023/06/25 16:37:10;;;;;;;7.10;5.43;;;;;;;;;;5042456;23;20466;-72
2023/06/25 16:39:45;;;;;;;7.47;5.00;;;;;;;;;;5030229;28;20839;-72
2023/06/25 16:42:14;;;;;;;6.77;5.30;;;;;;;;;;5033676;28;20480;-72
2023/06/25 16:44:56;;;;;;;8.60;5.60;;;;;;;;;;5032741;28;20779;-72
2023/06/25 16:47:24;;;;;;;7.90;5.77;;;;;;;;;;5033073;28;20450;-73
2023/06/25 16:49:55;;;;;;;11.37;5.90;;;;;;;;;;5035032;28;20493;-76
2023/06/25 16:52:32;;;;;;;8.63;6.20;;;;;;;;;;5035035;28;20763;-75
2023/06/25 16:55:18;;;;;;;6.50;5.00;;;;;;;;;;5033430;28;20457;-76
2023/06/25 16:57:51;;;;;;;8.40;5.57;;;;;;;;;;5034080;28;20565;-73
2023/06/25 17:00:19;;;;;;;8.13;5.90;;;;;;;;;;5032586;28;20451;-73
2023/06/25 17:03:03;;;;;;;8.20;6.23;;;;;;;;;;5031567;28;20458;-72
2023/06/25 17:05:48;;;;;;;9.77;5.83;;;;;;;;;;5033154;28;20486;-72
2023/06/25 17:11:44;;;;;;;7.20;5.37;;;;;;;;;;5038181;28;20440;-76
2023/06/25 17:17:07;;;;;;;7.63;5.40;;;;;;;;;;5033424;28;20486;-75
2023/06/25 17:19:48;;;;;;;6.93;5.40;;;;;;;;;;5032620;28;20879;-74
2023/06/25 17:22:24;;;;;;;7.63;5.53;;;;;;;;;;5033898;28;20477;-76
2023/06/25 17:24:55;;;;;;;6.50;4.70;;;;;;;;;;5028621;28;20482;-75
2023/06/25 18:31:15;;;;;;;7.47;5.50;;;;;;;;;;3363789;26;20911;-80
2023/06/25 18:36:19;;;;;;;6.07;4.73;;;;;;;;;;5022502;23;20560;-73
2023/06/25 18:38:47;;;;;;;10.37;5.40;;;;;;;;;;5014985;28;20586;-74
2023/06/25 18:41:15;;;;;;;7.47;5.80;;;;;;;;;;5016065;28;20494;-74
2023/06/25 18:43:49;;;;;;;7.80;6.03;;;;;;;;;;5015689;28;20485;-74
2023/06/25 18:46:27;;;;;;;15.77;8.53;;;;;;;;;;5009007;28;20808;-74
2023/06/25 18:48:55;;;;;;;8.73;6.73;;;;;;;;;;4995157;28;21038;-74
2023/06/25 18:51:23;;;;;;;7.63;5.33;;;;;;;;;;4996170;28;20475;-74
2023/06/25 18:53:51;;;;;;;6.17;5.00;;;;;;;;;;4996019;28;20463;-74
2023/06/25 18:56:20;;;;;;;7.77;5.87;;;;;;;;;;5006627;28;20525;-76
2023/06/25 18:58:51;;;;;;;6.40;5.40;;;;;;;;;;5018109;28;20459;-74
2023/06/25 19:01:24;;;;;;;8.27;6.03;;;;;;;;;;5017934;28;20451;-73
2023/06/25 19:03:53;;;;;;;9.23;5.80;;;;;;;;;;5014497;28;20443;-75
2023/06/25 19:06:21;;;;;;;8.90;6.13;;;;;;;;;;5016374;28;20471;-74
2023/06/25 19:14:54;;;;;;;10.90;6.17;;;;;;;;;;5831928;22;20479;-73
2023/06/25 19:17:25;;;;;;;7.27;5.57;;;;;;;;;;5014977;28;20423;-74
2023/06/25 19:19:53;;;;;;;7.80;6.07;;;;;;;;;;5016708;28;20443;-75
2023/06/25 19:22:21;;;;;;;7.27;5.60;;;;;;;;;;5017620;28;21045;-74
2023/06/25 19:24:49;;;;;;;7.60;6.00;;;;;;;;;;5016400;28;20510;-74
2023/06/25 19:32:20;;;;;;;11.07;5.90;;;;;;;;;;5023773;28;20476;-80
2023/06/25 19:34:54;;;;;;;8.50;6.40;;;;;;;;;;5038278;23;20920;-75
2023/06/25 19:37:27;;;;;;;7.17;6.10;;;;;;;;;;5013814;28;20876;-74
2023/06/25 19:39:58;;;;;;;7.10;5.70;;;;;;;;;;5011305;28;20728;-75
2023/06/25 19:42:27;;;;;;;6.80;5.57;;;;;;;;;;5013459;28;20550;-75
2023/06/25 19:44:55;;;;;;;8.83;6.73;;;;;;;;;;5014248;28;20474;-72
2023/06/25 19:47:24;;;;;;;8.30;6.13;;;;;;;;;;5014930;28;20542;-73
2023/06/25 19:49:54;;;;;;;9.90;6.00;;;;;;;;;;5018039;28;20892;-74
2023/06/25 19:52:25;;;;;;;10.63;6.40;;;;;;;;;;5010547;28;20521;-74
2023/06/25 19:54:56;;;;;;;10.53;6.53;;;;;;;;;;5017782;28;20439;-75
2023/06/25 19:57:24;;;;;;;8.23;6.27;;;;;;;;;;5003155;28;20452;-75
2023/06/25 19:59:52;;;;;;;8.90;6.23;;;;;;;;;;5012859;28;20468;-73
2023/06/25 20:02:26;;;;;;;9.40;6.97;;;;;;;;;;5011388;28;20474;-74
2023/06/25 20:05:05;;;;;;;9.00;7.90;;;;;;;;;;5018453;28;20932;-75
2023/06/25 20:10:37;;;;;;;7.23;6.40;;;;;;;;;;5019528;28;20403;-74
2023/06/25 20:13:08;;;;;;;7.87;6.87;;;;;;;;;;5020037;28;20534;-74
2023/06/25 20:15:44;;;;;;;8.50;6.93;;;;;;;;;;5018841;28;20486;-74
2023/06/25 20:18:23;;;;;;;8.70;6.93;;;;;;;;;;5019799;28;20454;-74
2023/06/25 20:21:00;;;;;;;7.63;6.40;;;;;;;;;;5019476;28;20916;-74
2023/06/25 20:23:49;;;;;;;7.77;6.53;;;;;;;;;;5017338;28;20794;-74
2023/06/25 20:29:06;;;;;;;7.93;7.13;;;;;;;;;;4289911;26;20472;-81
2023/06/25 20:31:34;;;;;;;8.10;6.47;;;;;;;;;;4979850;28;20472;-81
2023/06/25 20:34:01;;;;;;;9.77;6.50;;;;;;;;;;4979204;28;20477;-82
2023/06/25 20:36:31;;;;;;;8.67;7.10;;;;;;;;;;4978329;28;20457;-82
2023/06/25 20:38:58;;;;;;;8.83;7.37;;;;;;;;;;4986889;28;20468;-80
2023/06/25 20:41:27;;;;;;;7.00;6.30;;;;;;;;;;4989478;28;20468;-83
2023/06/25 20:43:57;;;;;;;8.30;7.10;;;;;;;;;;4981210;28;20503;-77
2023/06/25 20:46:25;;;;;;;7.70;6.90;;;;;;;;;;4983796;28;20528;-82
2023/06/25 20:48:52;;;;;;;8.80;7.13;;;;;;;;;;4986357;28;20457;-80
2023/06/25 20:51:19;;;;;;;8.47;7.43;;;;;;;;;;4987095;28;20465;-81
2023/06/25 20:53:48;;;;;;;8.60;7.63;;;;;;;;;;4984996;28;20460;-81
2023/06/25 20:56:15;;;;;;;9.00;7.50;;;;;;;;;;4982020;28;20453;-81